sensor_id;sensor_type;location;lat;lon;timestamp;temperature;humidity
11132;DHT22;5620;53.570;9.718;2022-12-16T00:01:23;2.20;1.00
11132;DHT22;5620;53.570;9.718;2022-12-16T00:03:51;2.20;1.00
11132;DHT22;5620;53.570;9.718;2022-12-16T00:06:19;2.20;1.00
11132;DHT22;5620;53.570;9.718;2022-12-16T00:08:46;2.20;1.00
11132;DHT22;5620;53.570;9.718;2022-12-16T00:11:12;2.20;1.00
11132;DHT22;5620;53.570;9.718;2022-12-16T00:13:38;2.20;1.00
11132;DHT22;5620;53.570;9.718;2022-12-16T00:18:52;2.30;1.00
11132;DHT22;5620;53.570;9.718;2022-12-16T00:21:19;2.30;1.00
11132;DHT22;5620;53.570;9.718;2022-12-16T00:23:45;2.30;1.00
11132;DHT22;5620;53.570;9.718;2022-12-16T00:26:11;2.40;1.00
11132;DHT22;5620;53.570;9.718;2022-12-16T00:28:39;2.40;1.00
11132;DHT22;5620;53.570;9.718;2022-12-16T00:31:06;2.40;1.00
11132;DHT22;5620;53.570;9.718;2022-12-16T00:33:35;2.40;1.00
11132;DHT22;5620;53.570;9.718;2022-12-16T00:36:00;2.50;1.00
11132;DHT22;5620;53.570;9.718;2022-12-16T00:38:26;2.50;1.00
11132;DHT22;5620;53.570;9.718;2022-12-16T00:40:54;2.40;1.00
11132;DHT22;5620;53.570;9.718;2022-12-16T00:43:20;2.50;1.00
11132;DHT22;5620;53.570;9.718;2022-12-16T00:45:47;2.50;1.00
11132;DHT22;5620;53.570;9.718;2022-12-16T00:48:15;2.50;1.00
11132;DHT22;5620;53.570;9.718;2022-12-16T00:50:52;2.50;1.00
11132;DHT22;5620;53.570;9.718;2022-12-16T00:53:19;2.50;1.00
11132;DHT22;5620;53.570;9.718;2022-12-16T00:55:47;2.50;1.00
11132;DHT22;5620;53.570;9.718;2022-12-16T00:58:13;2.50;1.00
11132;DHT22;5620;53.570;9.718;2022-12-16T01:00:39;2.50;1.00
11132;DHT22;5620;53.570;9.718;2022-12-16T01:03:05;2.50;1.00
11132;DHT22;5620;53.570;9.718;2022-12-16T01:05:32;2.50;1.00
11132;DHT22;5620;53.570;9.718;2022-12-16T01:07:58;2.50;1.00
11132;DHT22;5620;53.570;9.718;2022-12-16T01:10:27;2.50;1.00
11132;DHT22;5620;53.570;9.718;2022-12-16T01:12:54;2.50;1.00
11132;DHT22;5620;53.570;9.718;2022-12-16T01:15:19;2.50;1.00
11132;DHT22;5620;53.570;9.718;2022-12-16T01:17:45;2.50;1.00
11132;DHT22;5620;53.570;9.718;2022-12-16T01:20:12;2.60;1.00
11132;DHT22;5620;53.570;9.718;2022-12-16T01:22:40;2.60;1.00
11132;DHT22;5620;53.570;9.718;2022-12-16T01:25:09;2.60;1.00
11132;DHT22;5620;53.570;9.718;2022-12-16T01:27:38;2.70;1.00
11132;DHT22;5620;53.570;9.718;2022-12-16T01:30:09;2.60;1.00
11132;DHT22;5620;53.570;9.718;2022-12-16T01:32:36;2.60;1.00
11132;DHT22;5620;53.570;9.718;2022-12-16T01:35:02;2.60;1.00
11132;DHT22;5620;53.570;9.718;2022-12-16T01:37:28;2.60;1.00
11132;DHT22;5620;53.570;9.718;2022-12-16T01:39:55;2.60;1.00
11132;DHT22;5620;53.570;9.718;2022-12-16T01:42:22;2.60;1.00
11132;DHT22;5620;53.570;9.718;2022-12-16T01:44:50;2.60;1.00
11132;DHT22;5620;53.570;9.718;2022-12-16T01:47:35;2.60;1.00
11132;DHT22;5620;53.570;9.718;2022-12-16T01:50:09;2.70;1.00
11132;DHT22;5620;53.570;9.718;2022-12-16T01:52:41;2.70;1.00
11132;DHT22;5620;53.570;9.718;2022-12-16T01:55:34;2.70;1.00
11132;DHT22;5620;53.570;9.718;2022-12-16T01:58:22;2.70;1.00
11132;DHT22;5620;53.570;9.718;2022-12-16T02:00:49;2.60;1.00
11132;DHT22;5620;53.570;9.718;2022-12-16T02:03:17;2.60;1.00
11132;DHT22;5620;53.570;9.718;2022-12-16T02:05:46;2.50;1.00
11132;DHT22;5620;53.570;9.718;2022-12-16T02:08:15;2.50;1.00
11132;DHT22;5620;53.570;9.718;2022-12-16T02:19:58;2.30;1.00
11132;DHT22;5620;53.570;9.718;2022-12-16T02:22:52;2.20;1.00
11132;DHT22;5620;53.570;9.718;2022-12-16T02:28:40;2.10;1.00
11132;DHT22;5620;53.570;9.718;2022-12-16T02:40:03;1.90;1.00
11132;DHT22;5620;53.570;9.718;2022-12-16T02:42:40;1.90;1.00
11132;DHT22;5620;53.570;9.718;2022-12-16T02:45:27;1.80;1.00
11132;DHT22;5620;53.570;9.718;2022-12-16T02:47:56;1.80;1.00
11132;DHT22;5620;53.570;9.718;2022-12-16T02:50:27;1.70;1.00
11132;DHT22;5620;53.570;9.718;2022-12-16T02:52:54;1.60;1.00
11132;DHT22;5620;53.570;9.718;2022-12-16T03:07:11;1.10;1.00
11132;DHT22;5620;53.570;9.718;2022-12-16T03:09:40;1.00;1.00
11132;DHT22;5620;53.570;9.718;2022-12-16T03:12:12;0.90;1.00
11132;DHT22;5620;53.570;9.718;2022-12-16T03:14:41;0.90;1.00
11132;DHT22;5620;53.570;9.718;2022-12-16T03:17:08;0.80;1.00
11132;DHT22;5620;53.570;9.718;2022-12-16T03:19:35;0.70;1.00
11132;DHT22;5620;53.570;9.718;2022-12-16T03:22:15;0.60;1.00
11132;DHT22;5620;53.570;9.718;2022-12-16T03:24:42;0.60;1.00
11132;DHT22;5620;53.570;9.718;2022-12-16T03:30:08;0.40;1.00
11132;DHT22;5620;53.570;9.718;2022-12-16T03:33:02;0.30;1.00
11132;DHT22;5620;53.570;9.718;2022-12-16T03:35:48;0.20;1.00
11132;DHT22;5620;53.570;9.718;2022-12-16T03:38:16;0.10;1.00
11132;DHT22;5620;53.570;9.718;2022-12-16T03:40:44;0.00;1.00
11132;DHT22;5620;53.570;9.718;2022-12-16T03:43:12;-0.10;1.00
11132;DHT22;5620;53.570;9.718;2022-12-16T03:45:42;-0.10;1.00
11132;DHT22;5620;53.570;9.718;2022-12-16T03:48:09;-0.20;1.00
11132;DHT22;5620;53.570;9.718;2022-12-16T03:50:36;-0.20;1.00
11132;DHT22;5620;53.570;9.718;2022-12-16T03:53:03;-0.30;1.00
11132;DHT22;5620;53.570;9.718;2022-12-16T03:55:28;-0.30;1.00
11132;DHT22;5620;53.570;9.718;2022-12-16T03:57:55;-0.30;1.00
11132;DHT22;5620;53.570;9.718;2022-12-16T04:00:20;-0.40;1.00
11132;DHT22;5620;53.570;9.718;2022-12-16T04:02:46;-0.40;1.00
11132;DHT22;5620;53.570;9.718;2022-12-16T04:05:12;-0.50;1.00
11132;DHT22;5620;53.570;9.718;2022-12-16T04:07:39;-0.50;1.00
11132;DHT22;5620;53.570;9.718;2022-12-16T04:10:06;-0.60;1.00
11132;DHT22;5620;53.570;9.718;2022-12-16T04:12:33;-0.60;1.00
11132;DHT22;5620;53.570;9.718;2022-12-16T04:15:01;-0.60;1.00
11132;DHT22;5620;53.570;9.718;2022-12-16T04:17:30;-0.70;1.00
11132;DHT22;5620;53.570;9.718;2022-12-16T04:19:58;-0.70;1.00
11132;DHT22;5620;53.570;9.718;2022-12-16T04:22:28;-0.80;1.00
11132;DHT22;5620;53.570;9.718;2022-12-16T04:25:00;-0.80;1.00
11132;DHT22;5620;53.570;9.718;2022-12-16T04:27:27;-0.80;1.00
11132;DHT22;5620;53.570;9.718;2022-12-16T04:29:54;-0.90;1.00
11132;DHT22;5620;53.570;9.718;2022-12-16T04:32:21;-0.90;1.00
11132;DHT22;5620;53.570;9.718;2022-12-16T04:34:46;-0.90;1.00
11132;DHT22;5620;53.570;9.718;2022-12-16T04:37:12;-1.00;1.00
11132;DHT22;5620;53.570;9.718;2022-12-16T04:39:38;-1.00;1.00
11132;DHT22;5620;53.570;9.718;2022-12-16T04:42:05;-1.00;1.00
11132;DHT22;5620;53.570;9.718;2022-12-16T04:44:31;-1.10;1.00
11132;DHT22;5620;53.570;9.718;2022-12-16T04:46:56;-1.10;1.00
11132;DHT22;5620;53.570;9.718;2022-12-16T04:49:23;-1.20;1.00
11132;DHT22;5620;53.570;9.718;2022-12-16T04:51:50;-1.20;1.00
11132;DHT22;5620;53.570;9.718;2022-12-16T04:54:15;-1.20;1.00
11132;DHT22;5620;53.570;9.718;2022-12-16T04:56:41;-1.30;1.00
11132;DHT22;5620;53.570;9.718;2022-12-16T04:59:09;-1.30;1.00
11132;DHT22;5620;53.570;9.718;2022-12-16T05:01:36;-1.40;1.00
11132;DHT22;5620;53.570;9.718;2022-12-16T05:04:01;-1.40;1.00
11132;DHT22;5620;53.570;9.718;2022-12-16T05:06:29;-1.40;1.00
11132;DHT22;5620;53.570;9.718;2022-12-16T05:08:55;-1.40;1.00
11132;DHT22;5620;53.570;9.718;2022-12-16T05:11:21;-1.40;1.00
11132;DHT22;5620;53.570;9.718;2022-12-16T05:13:49;-1.50;1.00
11132;DHT22;5620;53.570;9.718;2022-12-16T05:16:14;-1.50;1.00
11132;DHT22;5620;53.570;9.718;2022-12-16T05:18:41;-1.60;1.00
11132;DHT22;5620;53.570;9.718;2022-12-16T05:21:06;-1.60;1.00
11132;DHT22;5620;53.570;9.718;2022-12-16T05:23:32;-1.60;1.00
11132;DHT22;5620;53.570;9.718;2022-12-16T05:25:57;-1.70;1.00
11132;DHT22;5620;53.570;9.718;2022-12-16T05:28:25;-1.70;1.00
11132;DHT22;5620;53.570;9.718;2022-12-16T05:30:53;-1.70;1.00
11132;DHT22;5620;53.570;9.718;2022-12-16T05:33:20;-1.70;7.10
11132;DHT22;5620;53.570;9.718;2022-12-16T05:35:45;-1.80;12.90
11132;DHT22;5620;53.570;9.718;2022-12-16T05:38:11;-1.70;22.00
11132;DHT22;5620;53.570;9.718;2022-12-16T05:40:39;-1.70;27.70
11132;DHT22;5620;53.570;9.718;2022-12-16T05:43:06;-1.80;31.60
11132;DHT22;5620;53.570;9.718;2022-12-16T05:45:32;-1.80;48.50
11132;DHT22;5620;53.570;9.718;2022-12-16T05:48:00;-1.80;49.30
11132;DHT22;5620;53.570;9.718;2022-12-16T05:50:28;-1.80;50.60
11132;DHT22;5620;53.570;9.718;2022-12-16T05:52:57;-1.80;63.00
11132;DHT22;5620;53.570;9.718;2022-12-16T05:55:26;-1.70;69.10
11132;DHT22;5620;53.570;9.718;2022-12-16T05:57:52;-1.70;72.50
11132;DHT22;5620;53.570;9.718;2022-12-16T06:00:19;-1.70;76.40
11132;DHT22;5620;53.570;9.718;2022-12-16T06:02:45;-1.70;75.20
11132;DHT22;5620;53.570;9.718;2022-12-16T06:05:13;-1.70;70.10
11132;DHT22;5620;53.570;9.718;2022-12-16T06:07:38;-1.70;69.70
11132;DHT22;5620;53.570;9.718;2022-12-16T06:10:05;-1.80;75.80
11132;DHT22;5620;53.570;9.718;2022-12-16T06:12:32;-1.80;78.80
11132;DHT22;5620;53.570;9.718;2022-12-16T06:14:58;-1.80;80.70
11132;DHT22;5620;53.570;9.718;2022-12-16T06:17:24;-1.90;86.30
11132;DHT22;5620;53.570;9.718;2022-12-16T06:19:54;-1.90;92.50
11132;DHT22;5620;53.570;9.718;2022-12-16T06:22:21;-1.90;95.00
11132;DHT22;5620;53.570;9.718;2022-12-16T06:24:48;-1.80;98.60
11132;DHT22;5620;53.570;9.718;2022-12-16T06:27:15;-1.80;99.90
11132;DHT22;5620;53.570;9.718;2022-12-16T06:29:41;-1.80;99.90
11132;DHT22;5620;53.570;9.718;2022-12-16T06:32:07;-1.60;99.90
11132;DHT22;5620;53.570;9.718;2022-12-16T06:34:33;-1.40;99.90
11132;DHT22;5620;53.570;9.718;2022-12-16T06:37:00;-1.30;99.90
11132;DHT22;5620;53.570;9.718;2022-12-16T06:39:27;-1.20;99.90
11132;DHT22;5620;53.570;9.718;2022-12-16T06:41:53;-1.00;99.90
11132;DHT22;5620;53.570;9.718;2022-12-16T06:44:18;-1.00;99.90
11132;DHT22;5620;53.570;9.718;2022-12-16T06:46:45;-0.80;99.90
11132;DHT22;5620;53.570;9.718;2022-12-16T06:49:10;-0.80;96.00
11132;DHT22;5620;53.570;9.718;2022-12-16T06:51:37;-0.70;94.80
11132;DHT22;5620;53.570;9.718;2022-12-16T06:54:04;-0.70;92.20
11132;DHT22;5620;53.570;9.718;2022-12-16T06:56:32;-0.60;92.10
11132;DHT22;5620;53.570;9.718;2022-12-16T06:58:59;-0.60;92.70
11132;DHT22;5620;53.570;9.718;2022-12-16T07:01:27;-0.60;94.00
11132;DHT22;5620;53.570;9.718;2022-12-16T07:03:54;-0.60;89.70
11132;DHT22;5620;53.570;9.718;2022-12-16T07:06:21;-0.50;91.50
11132;DHT22;5620;53.570;9.718;2022-12-16T07:08:49;-0.50;97.70
11132;DHT22;5620;53.570;9.718;2022-12-16T07:11:18;-0.40;99.90
11132;DHT22;5620;53.570;9.718;2022-12-16T07:13:43;-0.30;99.90
11132;DHT22;5620;53.570;9.718;2022-12-16T07:16:10;-0.20;97.50
11132;DHT22;5620;53.570;9.718;2022-12-16T07:18:36;-0.10;99.90
11132;DHT22;5620;53.570;9.718;2022-12-16T07:21:03;0.00;99.90
11132;DHT22;5620;53.570;9.718;2022-12-16T07:23:30;0.10;99.90
11132;DHT22;5620;53.570;9.718;2022-12-16T07:25:58;0.20;99.90
11132;DHT22;5620;53.570;9.718;2022-12-16T07:28:26;0.30;99.90
11132;DHT22;5620;53.570;9.718;2022-12-16T07:30:51;0.40;98.20
11132;DHT22;5620;53.570;9.718;2022-12-16T07:33:18;0.40;96.20
11132;DHT22;5620;53.570;9.718;2022-12-16T07:35:46;0.50;91.10
11132;DHT22;5620;53.570;9.718;2022-12-16T07:38:21;0.50;84.10
11132;DHT22;5620;53.570;9.718;2022-12-16T07:40:48;0.50;73.30
11132;DHT22;5620;53.570;9.718;2022-12-16T07:43:15;0.30;63.80
11132;DHT22;5620;53.570;9.718;2022-12-16T07:45:43;0.30;71.70
11132;DHT22;5620;53.570;9.718;2022-12-16T07:48:11;0.30;76.80
11132;DHT22;5620;53.570;9.718;2022-12-16T07:50:41;0.30;76.10
11132;DHT22;5620;53.570;9.718;2022-12-16T07:53:07;0.20;70.80
11132;DHT22;5620;53.570;9.718;2022-12-16T07:55:32;0.10;64.70
11132;DHT22;5620;53.570;9.718;2022-12-16T07:58:00;0.00;72.10
11132;DHT22;5620;53.570;9.718;2022-12-16T08:00:27;0.00;83.70
11132;DHT22;5620;53.570;9.718;2022-12-16T08:02:54;0.00;90.20
11132;DHT22;5620;53.570;9.718;2022-12-16T08:05:21;0.10;93.80
11132;DHT22;5620;53.570;9.718;2022-12-16T08:07:48;0.10;96.20
11132;DHT22;5620;53.570;9.718;2022-12-16T08:10:15;0.20;99.60
11132;DHT22;5620;53.570;9.718;2022-12-16T08:12:41;0.30;97.50
11132;DHT22;5620;53.570;9.718;2022-12-16T08:15:06;0.30;95.80
11132;DHT22;5620;53.570;9.718;2022-12-16T08:17:33;0.40;96.40
11132;DHT22;5620;53.570;9.718;2022-12-16T08:20:00;0.50;93.90
11132;DHT22;5620;53.570;9.718;2022-12-16T08:22:28;0.50;93.80
11132;DHT22;5620;53.570;9.718;2022-12-16T08:24:55;0.70;99.40
11132;DHT22;5620;53.570;9.718;2022-12-16T08:27:26;0.80;96.20
11132;DHT22;5620;53.570;9.718;2022-12-16T08:29:54;0.90;98.40
11132;DHT22;5620;53.570;9.718;2022-12-16T08:32:20;1.10;99.80
11132;DHT22;5620;53.570;9.718;2022-12-16T08:34:45;1.20;96.60
11132;DHT22;5620;53.570;9.718;2022-12-16T08:37:13;1.30;92.70
11132;DHT22;5620;53.570;9.718;2022-12-16T08:39:40;1.40;91.20
11132;DHT22;5620;53.570;9.718;2022-12-16T08:42:06;1.50;90.50
11132;DHT22;5620;53.570;9.718;2022-12-16T08:44:33;1.60;85.40
11132;DHT22;5620;53.570;9.718;2022-12-16T08:47:00;1.70;79.90
11132;DHT22;5620;53.570;9.718;2022-12-16T08:49:26;1.80;76.90
11132;DHT22;5620;53.570;9.718;2022-12-16T08:51:52;1.90;71.00
11132;DHT22;5620;53.570;9.718;2022-12-16T08:54:18;1.90;53.80
11132;DHT22;5620;53.570;9.718;2022-12-16T08:56:46;2.00;53.90
11132;DHT22;5620;53.570;9.718;2022-12-16T08:59:14;2.20;53.80
11132;DHT22;5620;53.570;9.718;2022-12-16T09:01:41;2.30;54.80
11132;DHT22;5620;53.570;9.718;2022-12-16T09:04:07;2.40;43.80
11132;DHT22;5620;53.570;9.718;2022-12-16T09:06:33;2.50;35.10
11132;DHT22;5620;53.570;9.718;2022-12-16T09:09:00;2.60;27.00
11132;DHT22;5620;53.570;9.718;2022-12-16T09:11:30;2.70;19.10
11132;DHT22;5620;53.570;9.718;2022-12-16T09:13:56;2.80;12.50
11132;DHT22;5620;53.570;9.718;2022-12-16T09:16:22;2.80;8.70
11132;DHT22;5620;53.570;9.718;2022-12-16T09:18:49;2.90;2.80
11132;DHT22;5620;53.570;9.718;2022-12-16T09:21:16;3.10;1.00
11132;DHT22;5620;53.570;9.718;2022-12-16T09:23:43;3.10;1.00
11132;DHT22;5620;53.570;9.718;2022-12-16T09:26:10;3.20;1.00
11132;DHT22;5620;53.570;9.718;2022-12-16T09:28:35;3.20;1.00
11132;DHT22;5620;53.570;9.718;2022-12-16T09:31:01;3.30;1.00
11132;DHT22;5620;53.570;9.718;2022-12-16T09:33:29;3.40;1.00
11132;DHT22;5620;53.570;9.718;2022-12-16T09:35:55;3.40;1.00
11132;DHT22;5620;53.570;9.718;2022-12-16T09:38:22;3.50;1.00
11132;DHT22;5620;53.570;9.718;2022-12-16T09:40:48;3.50;1.00
11132;DHT22;5620;53.570;9.718;2022-12-16T09:49:33;3.60;1.00
11132;DHT22;5620;53.570;9.718;2022-12-16T09:52:04;3.50;1.00
11132;DHT22;5620;53.570;9.718;2022-12-16T09:54:33;3.50;1.00
11132;DHT22;5620;53.570;9.718;2022-12-16T09:57:06;3.50;1.00
11132;DHT22;5620;53.570;9.718;2022-12-16T09:59:40;3.40;1.00
11132;DHT22;5620;53.570;9.718;2022-12-16T10:02:13;3.40;1.00
11132;DHT22;5620;53.570;9.718;2022-12-16T10:04:50;3.40;1.00
11132;DHT22;5620;53.570;9.718;2022-12-16T10:07:19;3.40;1.00
11132;DHT22;5620;53.570;9.718;2022-12-16T10:16:12;3.60;1.00
11132;DHT22;5620;53.570;9.718;2022-12-16T10:27:54;3.70;1.00
11132;DHT22;5620;53.570;9.718;2022-12-16T10:30:23;3.80;1.00
11132;DHT22;5620;53.570;9.718;2022-12-16T10:32:51;3.80;1.00
11132;DHT22;5620;53.570;9.718;2022-12-16T10:35:27;3.90;1.00
11132;DHT22;5620;53.570;9.718;2022-12-16T10:37:53;3.90;1.00
11132;DHT22;5620;53.570;9.718;2022-12-16T10:40:24;3.90;1.00
11132;DHT22;5620;53.570;9.718;2022-12-16T10:43:04;3.90;1.00
11132;DHT22;5620;53.570;9.718;2022-12-16T10:45:39;4.00;1.00
11132;DHT22;5620;53.570;9.718;2022-12-16T10:48:12;4.00;1.00
11132;DHT22;5620;53.570;9.718;2022-12-16T10:50:43;4.00;1.00
11132;DHT22;5620;53.570;9.718;2022-12-16T10:53:26;4.10;1.00
11132;DHT22;5620;53.570;9.718;2022-12-16T10:58:58;4.10;1.00
11132;DHT22;5620;53.570;9.718;2022-12-16T11:01:27;4.10;1.00
11132;DHT22;5620;53.570;9.718;2022-12-16T11:03:54;4.10;1.00
11132;DHT22;5620;53.570;9.718;2022-12-16T11:06:34;4.20;1.00
11132;DHT22;5620;53.570;9.718;2022-12-16T11:09:33;4.10;1.00
11132;DHT22;5620;53.570;9.718;2022-12-16T11:14:51;4.00;1.00
11132;DHT22;5620;53.570;9.718;2022-12-16T11:17:25;4.00;1.00
11132;DHT22;5620;53.570;9.718;2022-12-16T11:20:21;4.00;1.00
11132;DHT22;5620;53.570;9.718;2022-12-16T11:23:24;4.00;1.00
11132;DHT22;5620;53.570;9.718;2022-12-16T11:28:37;4.00;1.00
11132;DHT22;5620;53.570;9.718;2022-12-16T11:31:09;4.00;1.00
11132;DHT22;5620;53.570;9.718;2022-12-16T11:33:36;4.00;1.00
11132;DHT22;5620;53.570;9.718;2022-12-16T11:36:22;4.00;1.00
11132;DHT22;5620;53.570;9.718;2022-12-16T11:38:49;4.00;1.00
11132;DHT22;5620;53.570;9.718;2022-12-16T11:41:44;4.00;1.00
11132;DHT22;5620;53.570;9.718;2022-12-16T11:44:20;4.10;1.00
11132;DHT22;5620;53.570;9.718;2022-12-16T11:46:47;4.10;1.00
11132;DHT22;5620;53.570;9.718;2022-12-16T11:51:55;4.10;1.00
11132;DHT22;5620;53.570;9.718;2022-12-16T11:55:03;4.10;1.00
11132;DHT22;5620;53.570;9.718;2022-12-16T12:00:24;4.10;1.00
11132;DHT22;5620;53.570;9.718;2022-12-16T12:03:18;4.20;1.00
11132;DHT22;5620;53.570;9.718;2022-12-16T12:05:51;4.30;1.00
11132;DHT22;5620;53.570;9.718;2022-12-16T12:08:44;4.30;1.00
11132;DHT22;5620;53.570;9.718;2022-12-16T12:11:31;4.40;1.00
11132;DHT22;5620;53.570;9.718;2022-12-16T12:14:01;4.40;1.00
11132;DHT22;5620;53.570;9.718;2022-12-16T12:17:13;4.40;1.00
11132;DHT22;5620;53.570;9.718;2022-12-16T12:19:50;4.40;1.00
11132;DHT22;5620;53.570;9.718;2022-12-16T12:22:50;4.50;1.00
11132;DHT22;5620;53.570;9.718;2022-12-16T12:28:06;4.40;1.00
11132;DHT22;5620;53.570;9.718;2022-12-16T12:31:00;4.30;1.00
11132;DHT22;5620;53.570;9.718;2022-12-16T12:42:17;4.40;1.00
11132;DHT22;5620;53.570;9.718;2022-12-16T12:47:23;4.50;1.00
11132;DHT22;5620;53.570;9.718;2022-12-16T12:50:14;4.50;1.00
11132;DHT22;5620;53.570;9.718;2022-12-16T12:53:10;4.60;1.00
11132;DHT22;5620;53.570;9.718;2022-12-16T12:58:33;4.80;1.00
11132;DHT22;5620;53.570;9.718;2022-12-16T13:01:01;4.90;1.00
11132;DHT22;5620;53.570;9.718;2022-12-16T13:03:59;5.00;1.00
11132;DHT22;5620;53.570;9.718;2022-12-16T13:06:28;5.10;99.90
11132;DHT22;5620;53.570;9.718;2022-12-16T13:08:56;5.20;99.90
11132;DHT22;5620;53.570;9.718;2022-12-16T13:11:25;5.40;99.90
11132;DHT22;5620;53.570;9.718;2022-12-16T13:13:52;5.60;1.00
11132;DHT22;5620;53.570;9.718;2022-12-16T13:19:39;5.80;99.90
11132;DHT22;5620;53.570;9.718;2022-12-16T13:25:33;5.70;99.90
11132;DHT22;5620;53.570;9.718;2022-12-16T13:28:04;5.50;99.90
11132;DHT22;5620;53.570;9.718;2022-12-16T13:30:33;5.50;99.90
11132;DHT22;5620;53.570;9.718;2022-12-16T13:33:04;5.80;99.90
11132;DHT22;5620;53.570;9.718;2022-12-16T13:35:32;6.00;99.90
11132;DHT22;5620;53.570;9.718;2022-12-16T13:38:19;5.80;99.90
11132;DHT22;5620;53.570;9.718;2022-12-16T13:41:00;5.50;99.90
11132;DHT22;5620;53.570;9.718;2022-12-16T13:43:54;5.00;99.90
11132;DHT22;5620;53.570;9.718;2022-12-16T13:46:48;4.60;99.90
11132;DHT22;5620;53.570;9.718;2022-12-16T13:49:39;4.30;99.90
11132;DHT22;5620;53.570;9.718;2022-12-16T13:52:14;4.00;99.90
11132;DHT22;5620;53.570;9.718;2022-12-16T13:55:11;3.70;99.90
11132;DHT22;5620;53.570;9.718;2022-12-16T13:57:37;3.50;99.90
11132;DHT22;5620;53.570;9.718;2022-12-16T14:00:17;3.30;99.90
11132;DHT22;5620;53.570;9.718;2022-12-16T14:02:43;3.20;99.90
11132;DHT22;5620;53.570;9.718;2022-12-16T14:05:42;3.10;99.90
11132;DHT22;5620;53.570;9.718;2022-12-16T14:08:15;3.00;99.90
11132;DHT22;5620;53.570;9.718;2022-12-16T14:10:42;2.90;99.90
11132;DHT22;5620;53.570;9.718;2022-12-16T14:16:13;2.70;99.90
11132;DHT22;5620;53.570;9.718;2022-12-16T14:19:20;2.60;99.90
11132;DHT22;5620;53.570;9.718;2022-12-16T14:24:52;2.30;99.90
11132;DHT22;5620;53.570;9.718;2022-12-16T14:27:20;2.10;99.90
11132;DHT22;5620;53.570;9.718;2022-12-16T14:29:48;2.00;99.90
11132;DHT22;5620;53.570;9.718;2022-12-16T14:32:27;1.90;99.90
11132;DHT22;5620;53.570;9.718;2022-12-16T14:35:03;1.80;99.90
11132;DHT22;5620;53.570;9.718;2022-12-16T14:37:35;1.70;99.90
11132;DHT22;5620;53.570;9.718;2022-12-16T14:40:05;1.60;99.90
11132;DHT22;5620;53.570;9.718;2022-12-16T14:42:43;1.50;99.90
11132;DHT22;5620;53.570;9.718;2022-12-16T14:47:52;1.30;99.90
11132;DHT22;5620;53.570;9.718;2022-12-16T14:50:29;1.20;99.90
11132;DHT22;5620;53.570;9.718;2022-12-16T14:53:20;1.00;99.90
11132;DHT22;5620;53.570;9.718;2022-12-16T14:55:46;0.90;99.90
11132;DHT22;5620;53.570;9.718;2022-12-16T14:58:22;0.80;99.90
11132;DHT22;5620;53.570;9.718;2022-12-16T15:00:49;0.70;99.90
11132;DHT22;5620;53.570;9.718;2022-12-16T15:03:39;0.60;99.90
11132;DHT22;5620;53.570;9.718;2022-12-16T15:06:12;0.50;99.90
11132;DHT22;5620;53.570;9.718;2022-12-16T15:08:51;0.40;99.90
11132;DHT22;5620;53.570;9.718;2022-12-16T15:11:20;0.30;99.90
11132;DHT22;5620;53.570;9.718;2022-12-16T15:13:53;0.20;99.90
11132;DHT22;5620;53.570;9.718;2022-12-16T15:16:27;0.10;99.90
11132;DHT22;5620;53.570;9.718;2022-12-16T15:18:58;0.00;99.90
11132;DHT22;5620;53.570;9.718;2022-12-16T15:21:27;0.00;99.90
11132;DHT22;5620;53.570;9.718;2022-12-16T15:23:54;0.10;1.00
11132;DHT22;5620;53.570;9.718;2022-12-16T15:26:27;0.00;1.00
11132;DHT22;5620;53.570;9.718;2022-12-16T15:28:56;0.10;1.00
11132;DHT22;5620;53.570;9.718;2022-12-16T15:31:26;0.10;1.00
11132;DHT22;5620;53.570;9.718;2022-12-16T15:35:01;0.10;1.00
11132;DHT22;5620;53.570;9.718;2022-12-16T15:37:02;0.20;1.00
11132;DHT22;5620;53.570;9.718;2022-12-16T15:39:40;0.20;1.00
11132;DHT22;5620;53.570;9.718;2022-12-16T15:42:28;0.20;1.00
11132;DHT22;5620;53.570;9.718;2022-12-16T15:44:56;0.30;1.00
11132;DHT22;5620;53.570;9.718;2022-12-16T15:47:32;0.40;1.00
11132;DHT22;5620;53.570;9.718;2022-12-16T15:50:03;0.40;1.00
11132;DHT22;5620;53.570;9.718;2022-12-16T15:55:01;0.50;1.00
11132;DHT22;5620;53.570;9.718;2022-12-16T15:57:54;0.40;1.00
11132;DHT22;5620;53.570;9.718;2022-12-16T16:00:26;0.40;1.00
11132;DHT22;5620;53.570;9.718;2022-12-16T16:02:53;0.40;1.00
11132;DHT22;5620;53.570;9.718;2022-12-16T16:05:21;0.40;1.00
11132;DHT22;5620;53.570;9.718;2022-12-16T16:07:49;0.50;1.00
11132;DHT22;5620;53.570;9.718;2022-12-16T16:10:25;0.60;1.00
11132;DHT22;5620;53.570;9.718;2022-12-16T16:12:51;0.60;1.00
11132;DHT22;5620;53.570;9.718;2022-12-16T16:15:17;0.70;1.00
11132;DHT22;5620;53.570;9.718;2022-12-16T16:17:43;0.70;1.00
11132;DHT22;5620;53.570;9.718;2022-12-16T16:20:14;0.70;1.00
11132;DHT22;5620;53.570;9.718;2022-12-16T16:22:41;0.60;1.00
11132;DHT22;5620;53.570;9.718;2022-12-16T16:25:07;0.60;1.00
11132;DHT22;5620;53.570;9.718;2022-12-16T16:27:33;0.60;1.00
11132;DHT22;5620;53.570;9.718;2022-12-16T16:29:59;0.70;1.00
11132;DHT22;5620;53.570;9.718;2022-12-16T16:32:26;0.70;1.00
11132;DHT22;5620;53.570;9.718;2022-12-16T16:34:53;0.70;1.00
11132;DHT22;5620;53.570;9.718;2022-12-16T16:37:20;0.70;1.00
11132;DHT22;5620;53.570;9.718;2022-12-16T16:39:46;0.80;1.00
11132;DHT22;5620;53.570;9.718;2022-12-16T16:42:15;0.90;1.00
11132;DHT22;5620;53.570;9.718;2022-12-16T16:44:42;0.90;1.00
11132;DHT22;5620;53.570;9.718;2022-12-16T16:47:14;1.00;1.00
11132;DHT22;5620;53.570;9.718;2022-12-16T16:49:45;1.10;1.00
11132;DHT22;5620;53.570;9.718;2022-12-16T16:52:15;1.10;1.00
11132;DHT22;5620;53.570;9.718;2022-12-16T16:54:42;1.20;1.00
11132;DHT22;5620;53.570;9.718;2022-12-16T16:57:08;1.30;1.00
11132;DHT22;5620;53.570;9.718;2022-12-16T16:59:34;1.30;1.00
11132;DHT22;5620;53.570;9.718;2022-12-16T17:02:00;1.40;1.00
11132;DHT22;5620;53.570;9.718;2022-12-16T17:04:26;1.40;1.00
11132;DHT22;5620;53.570;9.718;2022-12-16T17:06:51;1.50;1.00
11132;DHT22;5620;53.570;9.718;2022-12-16T17:09:17;1.50;1.00
11132;DHT22;5620;53.570;9.718;2022-12-16T17:11:42;1.60;1.00
11132;DHT22;5620;53.570;9.718;2022-12-16T17:14:13;1.60;1.00
11132;DHT22;5620;53.570;9.718;2022-12-16T17:16:41;1.70;1.00
11132;DHT22;5620;53.570;9.718;2022-12-16T17:19:08;1.70;1.00
11132;DHT22;5620;53.570;9.718;2022-12-16T17:21:35;1.70;1.00
11132;DHT22;5620;53.570;9.718;2022-12-16T17:29:21;1.80;1.00
11132;DHT22;5620;53.570;9.718;2022-12-16T17:31:51;1.80;1.00
11132;DHT22;5620;53.570;9.718;2022-12-16T17:34:21;1.70;1.00
11132;DHT22;5620;53.570;9.718;2022-12-16T17:36:48;1.80;1.00
11132;DHT22;5620;53.570;9.718;2022-12-16T17:39:14;1.80;1.00
11132;DHT22;5620;53.570;9.718;2022-12-16T17:41:41;1.80;1.00
11132;DHT22;5620;53.570;9.718;2022-12-16T17:44:09;1.80;1.00
11132;DHT22;5620;53.570;9.718;2022-12-16T17:46:34;1.80;1.00
11132;DHT22;5620;53.570;9.718;2022-12-16T17:49:01;1.80;1.00
11132;DHT22;5620;53.570;9.718;2022-12-16T17:51:28;1.80;1.00
11132;DHT22;5620;53.570;9.718;2022-12-16T17:53:55;1.90;1.00
11132;DHT22;5620;53.570;9.718;2022-12-16T17:56:22;1.90;1.00
11132;DHT22;5620;53.570;9.718;2022-12-16T17:58:48;1.90;1.00
11132;DHT22;5620;53.570;9.718;2022-12-16T18:01:15;1.90;1.00
11132;DHT22;5620;53.570;9.718;2022-12-16T18:03:42;1.90;1.00
11132;DHT22;5620;53.570;9.718;2022-12-16T18:06:09;2.00;1.00
11132;DHT22;5620;53.570;9.718;2022-12-16T18:08:36;2.00;1.00
11132;DHT22;5620;53.570;9.718;2022-12-16T18:11:02;2.00;1.00
11132;DHT22;5620;53.570;9.718;2022-12-16T18:13:28;2.00;1.00
11132;DHT22;5620;53.570;9.718;2022-12-16T18:15:55;2.00;1.00
11132;DHT22;5620;53.570;9.718;2022-12-16T18:18:23;2.00;1.00
11132;DHT22;5620;53.570;9.718;2022-12-16T18:20:48;2.00;1.00
11132;DHT22;5620;53.570;9.718;2022-12-16T18:23:15;2.00;1.00
11132;DHT22;5620;53.570;9.718;2022-12-16T18:25:42;2.00;1.00